Time;durP1;ratioP1;P1;durP2;ratioP2;P2;SDS_P1;SDS_P2;PMS_P1;PMS_P2;Temp;Humidity;BMP_temperature;BMP_pressure;BME280_temperature;BME280_humidity;BME280_pressure;Samples;Min_cycle;Max_cycle;Signal;HPM_P1;HPM_P2
2021/07/20 00:00:28;;;;;;;22.15;11.15;;;;;;;14.30;100.00;102150.31;3568107;39;20333;-61
2021/07/20 00:02:56;;;;;;;22.38;11.55;;;;;;;14.26;100.00;102140.72;3568218;39;20032;-61
2021/07/20 00:05:25;;;;;;;23.67;11.68;;;;;;;14.33;100.00;102144.63;3568993;39;20081;-61
2021/07/20 00:07:52;;;;;;;23.45;12.02;;;;;;;14.26;100.00;102135.28;3572690;39;20055;-62
2021/07/20 00:10:23;;;;;;;21.15;11.25;;;;;;;14.23;100.00;102138.25;3567439;39;20061;-63
2021/07/20 00:12:51;;;;;;;20.38;11.38;;;;;;;14.21;100.00;102145.66;3564937;39;20260;-62
2021/07/20 00:15:18;;;;;;;25.95;12.07;;;;;;;14.12;100.00;102149.13;3569695;39;20372;-62
2021/07/20 00:17:45;;;;;;;20.20;11.23;;;;;;;14.02;100.00;102144.47;3559732;39;20405;-62
2021/07/20 00:20:15;;;;;;;21.60;11.60;;;;;;;13.91;100.00;102138.22;3568477;39;20154;-61
2021/07/20 00:22:41;;;;;;;;;;;;;;;13.84;100.00;102146.88;3571341;39;20477;-62
2021/07/20 00:25:11;;;;;;;23.92;11.55;;;;;;;13.84;100.00;102137.91;3572126;39;19973;-61
2021/07/20 00:27:38;;;;;;;19.65;10.95;;;;;;;13.83;100.00;102144.28;3570203;39;20753;-62
2021/07/20 00:30:09;;;;;;;22.17;12.38;;;;;;;13.68;100.00;102141.00;3571285;39;20579;-61
2021/07/20 00:32:35;;;;;;;21.40;11.25;;;;;;;13.57;100.00;102146.41;3570342;39;20047;-61
2021/07/20 00:35:02;;;;;;;20.48;10.68;;;;;;;13.59;100.00;102147.13;3570768;39;20032;-62
2021/07/20 00:37:28;;;;;;;21.75;11.45;;;;;;;13.48;100.00;102145.31;3572329;39;20052;-62
2021/07/20 00:39:55;;;;;;;27.38;12.20;;;;;;;13.42;100.00;102152.06;3572781;39;20341;-62
2021/07/20 00:42:21;;;;;;;22.20;11.32;;;;;;;13.38;100.00;102145.16;3570858;39;20047;-61
2021/07/20 00:44:48;;;;;;;22.60;11.88;;;;;;;13.37;100.00;102150.69;3568100;39;20051;-60
2021/07/20 00:47:17;;;;;;;25.30;12.65;;;;;;;13.25;100.00;102145.28;3572349;39;20491;-62
2021/07/20 00:49:43;;;;;;;;;;;;;;;13.26;100.00;102146.97;3570877;39;20059;-61
2021/07/20 00:52:10;;;;;;;21.98;11.00;;;;;;;13.29;100.00;102146.75;3570649;39;19933;-62
2021/07/20 00:54:37;;;;;;;21.20;11.85;;;;;;;13.29;100.00;102141.34;3568266;39;20052;-62
2021/07/20 00:57:04;;;;;;;20.13;10.20;;;;;;;13.19;100.00;102151.19;3571245;39;20067;-62
2021/07/20 00:59:31;;;;;;;19.95;10.10;;;;;;;13.22;100.00;102144.66;3570522;39;20032;-63
2021/07/20 01:01:58;;;;;;;21.27;11.68;;;;;;;13.12;100.00;102142.69;3572117;39;20070;-63
2021/07/20 01:04:25;;;;;;;22.13;12.27;;;;;;;13.01;100.00;102142.66;3572735;39;20051;-62
2021/07/20 01:06:53;;;;;;;25.02;12.38;;;;;;;12.99;100.00;102144.63;3575504;39;20041;-62
2021/07/20 01:09:21;;;;;;;22.27;11.27;;;;;;;12.97;100.00;102144.75;3573570;39;20321;-62
2021/07/20 01:11:48;;;;;;;26.88;12.70;;;;;;;12.95;100.00;102141.28;3566766;40;20052;-63
2021/07/20 01:14:14;;;;;;;21.80;11.73;;;;;;;12.93;100.00;102151.38;3571774;39;20052;-62
2021/07/20 01:16:43;;;;;;;25.42;12.52;;;;;;;12.93;100.00;102145.97;3569409;39;20052;-61
2021/07/20 01:19:14;;;;;;;23.67;11.50;;;;;;;12.87;100.00;102146.47;3571797;39;21052;-61
2021/07/20 01:21:43;;;;;;;26.17;12.60;;;;;;;12.81;100.00;102149.63;3570932;39;20040;-62
2021/07/20 01:24:12;;;;;;;22.08;11.43;;;;;;;12.72;100.00;102142.22;3568813;39;20381;-61
2021/07/20 01:26:39;;;;;;;24.00;11.23;;;;;;;12.76;100.00;102143.72;3569200;39;20032;-60
2021/07/20 01:29:06;;;;;;;20.45;11.63;;;;;;;12.70;100.00;102146.91;3569391;39;20317;-61
2021/07/20 01:31:36;;;;;;;19.92;11.30;;;;;;;12.71;100.00;102135.97;3569145;39;20108;-62
2021/07/20 01:34:04;;;;;;;23.55;11.55;;;;;;;12.71;100.00;102138.69;3569853;39;20216;-61
2021/07/20 01:36:33;;;;;;;22.33;11.95;;;;;;;12.76;100.00;102138.31;3568961;39;20266;-61
2021/07/20 01:39:02;;;;;;;20.85;11.70;;;;;;;12.71;100.00;102135.13;3571638;39;21595;-61
2021/07/20 01:41:31;;;;;;;21.20;10.90;;;;;;;12.80;100.00;102129.84;3567930;39;20036;-61
2021/07/20 01:44:03;;;;;;;22.88;11.98;;;;;;;12.61;100.00;102135.81;3574508;39;20025;-62
2021/07/20 01:46:32;;;;;;;22.75;11.35;;;;;;;12.65;100.00;102127.47;3569779;39;20565;-62
2021/07/20 01:49:00;;;;;;;24.33;12.48;;;;;;;12.55;100.00;102130.03;3564421;39;20228;-61
2021/07/20 01:51:27;;;;;;;22.90;12.27;;;;;;;12.53;100.00;102130.16;3569376;39;20069;-60
2021/07/20 01:53:56;;;;;;;22.40;11.82;;;;;;;12.45;100.00;102135.28;3569245;39;20043;-62
2021/07/20 01:56:23;;;;;;;23.00;12.07;;;;;;;12.41;100.00;102140.06;3575024;39;20074;-61
2021/07/20 01:58:51;;;;;;;22.25;11.35;;;;;;;12.46;100.00;102134.31;3567582;39;20040;-62
2021/07/20 02:01:20;;;;;;;25.10;12.35;;;;;;;12.41;100.00;102139.19;3570266;39;20044;-61
2021/07/20 02:04:13;;;;;;;27.15;12.60;;;;;;;12.33;100.00;102136.22;3571733;39;20063;-62
2021/07/20 02:09:31;;;;;;;23.63;12.32;;;;;;;12.30;100.00;102142.69;3573755;39;20050;-61
2021/07/20 02:11:59;;;;;;;24.67;12.63;;;;;;;12.23;100.00;102145.03;3573134;39;20029;-60
2021/07/20 02:14:31;;;;;;;25.63;12.52;;;;;;;12.06;100.00;102142.72;3571406;39;20130;-62
2021/07/20 02:17:01;;;;;;;26.30;12.73;;;;;;;12.02;100.00;102138.53;3572826;39;20292;-61
2021/07/20 02:19:33;;;;;;;25.63;12.60;;;;;;;12.03;100.00;102140.25;3570280;39;20589;-62
2021/07/20 02:22:00;;;;;;;26.30;12.55;;;;;;;11.94;100.00;102140.91;3572484;39;20071;-61
2021/07/20 02:24:29;;;;;;;26.15;13.32;;;;;;;11.91;100.00;102142.84;3571600;39;20396;-62
2021/07/20 02:26:56;;;;;;;27.47;13.67;;;;;;;11.86;100.00;102136.91;3560699;40;20062;-61
2021/07/20 02:29:24;;;;;;;27.58;12.80;;;;;;;11.79;100.00;102140.19;3555718;40;20056;-61
2021/07/20 02:31:56;;;;;;;25.08;12.70;;;;;;;11.86;100.00;102142.31;3557052;40;20319;-62
2021/07/20 02:34:22;;;;;;;24.48;12.70;;;;;;;11.79;100.00;102154.50;3561071;40;20425;-62
2021/07/20 02:36:50;;;;;;;26.05;12.40;;;;;;;11.77;100.00;102140.28;3558010;40;20068;-61
2021/07/20 02:39:18;;;;;;;25.92;12.02;;;;;;;11.85;100.00;102143.31;3558561;40;20281;-61
2021/07/20 02:41:47;;;;;;;25.00;11.93;;;;;;;11.87;100.00;102144.03;3559601;40;20037;-62
2021/07/20 02:44:14;;;;;;;21.63;11.63;;;;;;;11.84;100.00;102146.97;3556634;40;20045;-61
2021/07/20 02:46:42;;;;;;;24.13;12.30;;;;;;;11.75;100.00;102148.50;3555481;40;20178;-60
2021/07/20 02:49:11;;;;;;;25.50;12.80;;;;;;;11.70;100.00;102155.19;3557188;40;20291;-61
2021/07/20 02:51:38;;;;;;;28.25;13.25;;;;;;;11.68;100.00;102151.75;3557917;40;20036;-62
2021/07/20 02:54:07;;;;;;;24.70;12.48;;;;;;;11.66;100.00;102143.78;3557440;40;20950;-61
2021/07/20 02:56:34;;;;;;;27.65;12.95;;;;;;;11.71;100.00;102152.38;3559047;40;20033;-61
2021/07/20 02:59:14;;;;;;;30.63;13.27;;;;;;;11.67;100.00;102145.47;3617190;23;20083;-60
2021/07/20 03:01:42;;;;;;;26.17;12.80;;;;;;;11.63;100.00;102148.53;3554563;40;21078;-61
2021/07/20 03:04:10;;;;;;;24.05;12.30;;;;;;;11.59;100.00;102145.19;3553667;40;20053;-63
2021/07/20 03:06:40;;;;;;;20.38;11.75;;;;;;;11.55;100.00;102147.25;3551453;40;20052;-61
2021/07/20 03:09:09;;;;;;;26.60;13.10;;;;;;;11.49;100.00;102146.84;3558119;40;20489;-61
2021/07/20 03:11:40;;;;;;;28.02;13.82;;;;;;;11.47;100.00;102144.25;3550124;40;20041;-60
2021/07/20 03:14:12;;;;;;;23.13;12.43;;;;;;;11.54;100.00;102152.75;3553616;40;20296;-62
2021/07/20 03:16:41;;;;;;;23.50;12.73;;;;;;;11.57;100.00;102148.00;3554289;40;20652;-61
2021/07/20 03:19:11;;;;;;;23.30;12.70;;;;;;;11.43;100.00;102148.13;3556026;40;20322;-61
2021/07/20 03:21:39;;;;;;;22.95;12.38;;;;;;;11.28;100.00;102150.09;3554048;40;20045;-61
2021/07/20 03:24:08;;;;;;;25.70;12.65;;;;;;;11.33;100.00;102141.69;3551517;40;20045;-62
2021/07/20 03:26:35;;;;;;;23.70;12.13;;;;;;;11.24;100.00;102153.13;3552237;40;20052;-61
2021/07/20 03:29:04;;;;;;;26.20;13.00;;;;;;;11.34;100.00;102143.41;3551314;40;20407;-61
2021/07/20 03:31:31;;;;;;;24.17;12.93;;;;;;;11.36;100.00;102147.69;3551374;40;20037;-61
2021/07/20 03:33:59;;;;;;;23.30;12.48;;;;;;;11.40;100.00;102148.34;3553493;40;20119;-62
2021/07/20 03:36:28;;;;;;;23.25;12.50;;;;;;;11.43;100.00;102147.28;3550911;40;20061;-61
2021/07/20 03:38:55;;;;;;;28.98;13.30;;;;;;;11.26;100.00;102145.78;3553689;40;20033;-62
2021/07/20 03:41:25;;;;;;;24.23;12.80;;;;;;;11.12;100.00;102152.16;3552971;40;20377;-61
2021/07/20 03:43:53;;;;;;;25.48;13.57;;;;;;;11.03;100.00;102150.97;3546697;40;20060;-63
2021/07/20 03:46:19;;;;;;;26.02;12.98;;;;;;;11.00;100.00;102149.34;3551504;40;20122;-62
2021/07/20 03:48:46;;;;;;;27.30;13.05;;;;;;;10.95;100.00;102147.94;3552035;40;20045;-61
2021/07/20 03:51:13;;;;;;;30.90;13.98;;;;;;;11.02;100.00;102152.78;3548863;40;20364;-62
2021/07/20 03:53:41;;;;;;;25.60;13.57;;;;;;;11.01;100.00;102155.59;3555082;40;20412;-61
2021/07/20 03:56:08;;;;;;;25.50;12.65;;;;;;;10.99;100.00;102149.44;3550026;40;20040;-61
2021/07/20 03:58:38;;;;;;;26.45;13.40;;;;;;;11.11;100.00;102151.28;3551592;40;20202;-61
2021/07/20 04:01:05;;;;;;;26.58;12.95;;;;;;;11.10;100.00;102149.56;3547851;40;20040;-62
2021/07/20 04:03:35;;;;;;;25.33;13.00;;;;;;;10.93;100.00;102156.13;3555125;40;20292;-62
2021/07/20 04:06:04;;;;;;;29.35;13.25;;;;;;;11.07;100.00;102154.28;3555628;40;20049;-61
2021/07/20 04:08:33;;;;;;;26.45;13.43;;;;;;;11.09;100.00;102150.53;3554375;40;20056;-61
2021/07/20 04:11:02;;;;;;;;;;;;;;;11.04;100.00;102153.56;3555821;40;20675;-61
2021/07/20 04:13:30;;;;;;;25.95;13.02;;;;;;;11.09;100.00;102150.53;3551534;40;19982;-61
2021/07/20 04:15:59;;;;;;;24.13;13.00;;;;;;;11.15;100.00;102160.88;3554195;40;20047;-61
2021/07/20 04:18:26;;;;;;;26.30;13.32;;;;;;;11.08;100.00;102153.34;3556164;40;20363;-61
2021/07/20 04:20:53;;;;;;;27.73;13.80;;;;;;;11.06;100.00;102156.13;3553742;40;20463;-62
2021/07/20 04:23:21;;;;;;;28.10;13.60;;;;;;;11.08;100.00;102151.50;3553280;40;20057;-61
2021/07/20 04:25:48;;;;;;;29.55;14.18;;;;;;;11.19;100.00;102162.38;3555350;40;20162;-63
2021/07/20 04:28:17;;;;;;;27.52;13.75;;;;;;;11.11;100.00;102151.28;3551203;40;20037;-63
2021/07/20 04:30:45;;;;;;;29.23;14.23;;;;;;;11.13;100.00;102164.63;3553334;40;20448;-61
2021/07/20 04:33:14;;;;;;;26.42;13.15;;;;;;;11.21;100.00;102154.19;3557260;40;20060;-61
2021/07/20 04:35:41;;;;;;;27.98;13.07;;;;;;;11.22;100.00;102151.38;3554666;40;20040;-61
2021/07/20 04:38:10;;;;;;;23.08;12.57;;;;;;;11.32;100.00;102146.22;3552844;40;20055;-62
2021/07/20 04:40:39;;;;;;;30.70;13.85;;;;;;;11.40;100.00;102148.34;3555415;40;20262;-62
2021/07/20 04:43:06;;;;;;;26.33;13.18;;;;;;;11.40;100.00;102151.91;3557812;40;20929;-62
2021/07/20 04:45:34;;;;;;;26.48;12.73;;;;;;;11.55;100.00;102158.03;3557481;40;20099;-62
2021/07/20 04:48:01;;;;;;;28.52;12.85;;;;;;;11.50;100.00;102149.41;3555238;40;20041;-61
2021/07/20 04:50:28;;;;;;;26.92;13.82;;;;;;;11.39;100.00;102149.31;3550008;40;20107;-62
2021/07/20 04:52:58;;;;;;;25.70;12.95;;;;;;;11.53;100.00;102156.44;3552047;40;20064;-62
2021/07/20 04:55:25;;;;;;;26.00;12.88;;;;;;;11.71;100.00;102154.22;3554203;40;20183;-61
2021/07/20 04:57:52;;;;;;;21.52;11.15;;;;;;;11.99;100.00;102154.94;3553216;40;20055;-62
2021/07/20 05:00:19;;;;;;;25.85;12.82;;;;;;;12.06;100.00;102157.06;3547075;40;20325;-61
2021/07/20 05:02:48;;;;;;;26.70;11.90;;;;;;;12.02;100.00;102152.00;3549904;40;20049;-62
2021/07/20 05:05:16;;;;;;;;;;;;;;;12.18;100.00;102155.28;3551144;40;20502;-61
2021/07/20 05:07:42;;;;;;;24.58;11.98;;;;;;;12.12;100.00;102161.16;3547913;40;20346;-61
2021/07/20 05:10:12;;;;;;;27.13;12.27;;;;;;;12.21;100.00;102155.06;3556866;40;20041;-61
2021/07/20 05:12:40;;;;;;;24.27;12.05;;;;;;;12.40;100.00;102153.69;3554317;40;20036;-61
2021/07/20 05:15:08;;;;;;;22.70;11.50;;;;;;;12.33;100.00;102150.56;3548853;40;20393;-62
2021/07/20 05:17:36;;;;;;;24.13;12.07;;;;;;;12.34;100.00;102151.44;3549423;40;20045;-62
2021/07/20 05:20:05;;;;;;;25.08;12.65;;;;;;;12.42;100.00;102152.56;3548671;40;20807;-61
2021/07/20 05:22:35;;;;;;;25.08;12.40;;;;;;;12.49;100.00;102161.06;3546612;40;20061;-61
2021/07/20 05:25:01;;;;;;;;;;;;;;;12.57;100.00;102155.97;3549028;40;20335;-62
2021/07/20 05:29:57;;;;;;;;;;;;;;;13.11;100.00;102148.22;3627520;22;20942;-62
2021/07/20 05:32:24;;;;;;;23.52;11.80;;;;;;;13.13;100.00;102151.63;3579566;39;20934;-61
2021/07/20 05:34:51;;;;;;;19.90;11.68;;;;;;;13.25;100.00;102147.97;3582866;39;20027;-62
2021/07/20 05:37:20;;;;;;;21.38;11.88;;;;;;;13.22;100.00;102150.94;3577724;39;20202;-62
2021/07/20 05:39:49;;;;;;;23.77;12.05;;;;;;;13.34;100.00;102143.72;3575747;39;20039;-61
2021/07/20 05:42:17;;;;;;;23.30;11.35;;;;;;;13.57;100.00;102149.97;3581738;39;20054;-61
2021/07/20 05:44:45;;;;;;;21.87;11.67;;;;;;;13.74;100.00;102150.47;3579097;39;21230;-61
2021/07/20 05:47:13;;;;;;;19.38;11.10;;;;;;;13.90;100.00;102155.44;3582093;39;20474;-61
2021/07/20 05:49:40;;;;;;;21.08;11.45;;;;;;;14.05;100.00;102153.34;3584775;39;20032;-61
2021/07/20 05:52:48;;;;;;;24.10;11.32;;;;;;;14.08;100.00;102158.50;3620339;22;20048;-61
2021/07/20 05:55:19;;;;;;;19.30;11.27;;;;;;;14.13;100.00;102158.97;3544092;40;20034;-60
2021/07/20 05:57:48;;;;;;;19.50;11.25;;;;;;;14.34;100.00;102159.91;3546043;40;20049;-61
2021/07/20 06:00:16;;;;;;;18.47;10.47;;;;;;;14.48;100.00;102160.56;3548183;40;20523;-61
2021/07/20 06:02:44;;;;;;;19.67;11.07;;;;;;;14.61;100.00;102160.41;3544831;40;20302;-61
2021/07/20 06:05:15;;;;;;;17.95;9.82;;;;;;;14.77;100.00;102155.41;3543653;40;20071;-62
2021/07/20 06:07:43;;;;;;;18.08;10.77;;;;;;;15.08;100.00;102147.34;3546680;40;20036;-62
2021/07/20 06:10:14;;;;;;;22.15;11.60;;;;;;;15.05;100.00;102158.44;3543132;40;20064;-63
2021/07/20 06:12:43;;;;;;;16.45;9.75;;;;;;;15.24;100.00;102144.97;3546811;40;20458;-62
2021/07/20 06:15:10;;;;;;;;;;;;;;;15.36;100.00;102151.19;3546646;40;20037;-62
2021/07/20 06:17:37;;;;;;;17.15;10.18;;;;;;;15.48;100.00;102153.81;3551038;40;19967;-62
2021/07/20 06:20:05;;;;;;;18.27;10.38;;;;;;;15.85;100.00;102156.81;3556129;40;20037;-62
2021/07/20 06:22:35;;;;;;;18.52;9.95;;;;;;;15.75;100.00;102156.75;3549060;40;20270;-62
2021/07/20 06:25:04;;;;;;;17.10;9.27;;;;;;;16.03;100.00;102154.28;3549549;40;20513;-62
2021/07/20 06:27:31;;;;;;;18.43;10.07;;;;;;;16.07;100.00;102161.13;3550442;40;20733;-61
2021/07/20 06:30:01;;;;;;;17.92;9.75;;;;;;;16.18;100.00;102145.72;3547450;40;20642;-62
2021/07/20 06:32:28;;;;;;;13.88;8.13;;;;;;;15.98;100.00;102151.13;3572633;40;20051;-62
2021/07/20 06:34:56;;;;;;;14.07;9.07;;;;;;;16.23;100.00;102149.72;3572666;40;20071;-62
2021/07/20 06:37:25;;;;;;;14.48;8.90;;;;;;;16.34;100.00;102151.47;3576804;40;20412;-62
2021/07/20 06:39:52;;;;;;;14.27;9.00;;;;;;;16.50;100.00;102155.44;3574734;40;20318;-62
2021/07/20 06:42:20;;;;;;;15.02;7.88;;;;;;;16.73;100.00;102159.59;3578272;40;20048;-62
2021/07/20 06:44:47;;;;;;;13.77;8.63;;;;;;;17.13;100.00;102163.13;3578089;40;20037;-61
2021/07/20 06:47:16;;;;;;;15.95;8.70;;;;;;;17.34;100.00;102154.75;3576525;40;20025;-62
2021/07/20 06:49:46;;;;;;;12.00;7.40;;;;;;;17.25;100.00;102156.47;3578281;40;20048;-61
2021/07/20 06:52:14;;;;;;;15.55;7.65;;;;;;;17.14;100.00;102157.53;3576771;40;20277;-62
2021/07/20 06:54:41;;;;;;;12.00;7.70;;;;;;;17.35;100.00;102159.19;3577467;40;20063;-62
2021/07/20 06:57:09;;;;;;;11.82;7.70;;;;;;;17.38;100.00;102164.31;3555877;40;20276;-63
2021/07/20 06:59:37;;;;;;;13.52;7.43;;;;;;;17.36;100.00;102163.63;3560403;40;20063;-63
2021/07/20 07:02:06;;;;;;;11.63;7.55;;;;;;;17.16;100.00;102169.09;3570486;40;20103;-62
2021/07/20 07:04:38;;;;;;;;;;;;;;;17.16;100.00;102166.38;3575485;40;20060;-63
2021/07/20 07:07:06;;;;;;;12.88;7.60;;;;;;;17.36;100.00;102174.50;3575396;40;19953;-62
2021/07/20 07:09:33;;;;;;;11.15;7.00;;;;;;;17.46;100.00;102169.88;3571526;40;20041;-62
2021/07/20 07:12:00;;;;;;;11.27;6.82;;;;;;;17.47;100.00;102174.31;3576358;40;20041;-62
2021/07/20 07:14:30;;;;;;;10.85;7.30;;;;;;;17.75;100.00;102174.31;3576618;40;20028;-62
2021/07/20 07:16:57;;;;;;;11.88;6.93;;;;;;;17.77;100.00;102171.44;3572584;40;20325;-62
2021/07/20 07:19:24;;;;;;;14.73;7.40;;;;;;;17.71;100.00;102175.66;3577833;40;20021;-63
2021/07/20 07:21:53;;;;;;;11.30;6.65;;;;;;;17.79;100.00;102173.03;3574119;40;20031;-62
2021/07/20 07:24:20;;;;;;;;;;;;;;;17.98;100.00;102168.50;3573588;40;20092;-61
2021/07/20 07:26:49;;;;;;;10.75;6.68;;;;;;;17.88;100.00;102165.81;3573129;40;20206;-62
2021/07/20 07:29:18;;;;;;;11.07;7.28;;;;;;;18.16;100.00;102174.81;3576282;40;20414;-63
2021/07/20 07:31:45;;;;;;;10.70;6.40;;;;;;;18.45;100.00;102178.38;3571249;40;20033;-63
2021/07/20 07:34:12;;;;;;;11.55;6.82;;;;;;;18.52;100.00;102180.31;3571505;40;20399;-62
2021/07/20 07:36:43;;;;;;;12.32;6.80;;;;;;;18.12;100.00;102176.13;3574993;40;20042;-62
2021/07/20 07:39:12;;;;;;;11.32;7.30;;;;;;;18.17;100.00;102179.28;3574996;40;20398;-62
2021/07/20 07:41:39;;;;;;;12.20;6.63;;;;;;;18.63;100.00;102179.19;3572423;40;20040;-62
2021/07/20 07:44:07;;;;;;;8.40;6.03;;;;;;;18.71;100.00;102176.56;3574458;40;20034;-62
2021/07/20 07:46:36;;;;;;;9.32;6.13;;;;;;;18.53;100.00;102182.00;3573887;40;20037;-62
2021/07/20 07:49:02;;;;;;;9.40;6.78;;;;;;;18.95;100.00;102172.34;3575840;40;20043;-62
2021/07/20 07:51:29;;;;;;;10.43;6.47;;;;;;;18.97;100.00;102174.91;3572197;40;20033;-62
2021/07/20 07:53:58;;;;;;;10.23;6.30;;;;;;;19.06;100.00;102173.94;3574593;40;20061;-63
2021/07/20 07:56:27;;;;;;;11.55;6.07;;;;;;;18.96;100.00;102181.38;3572354;40;20399;-63
2021/07/20 07:58:55;;;;;;;8.95;5.82;;;;;;;19.07;100.00;102178.38;3577168;40;20037;-63
2021/07/20 08:01:22;;;;;;;8.63;5.60;;;;;;;19.08;100.00;102180.09;3576324;40;20029;-63
2021/07/20 08:03:50;;;;;;;11.45;6.50;;;;;;;19.01;100.00;102181.75;3574743;40;20313;-63
2021/07/20 08:06:20;;;;;;;8.82;6.03;;;;;;;19.02;100.00;102184.31;3576288;40;20045;-64
2021/07/20 08:08:49;;;;;;;9.45;6.07;;;;;;;19.21;100.00;102177.81;3573929;40;20045;-63
2021/07/20 08:11:16;;;;;;;8.82;6.13;;;;;;;19.49;100.00;102174.88;3577565;40;20045;-63
2021/07/20 08:13:45;;;;;;;11.75;7.60;;;;;;;19.39;100.00;102179.59;3577834;40;20042;-63
2021/07/20 08:16:14;;;;;;;10.88;6.47;;;;;;;19.31;100.00;102176.81;3574922;40;20029;-63
2021/07/20 08:18:41;;;;;;;11.05;6.68;;;;;;;19.75;100.00;102173.97;3577318;40;20059;-63
2021/07/20 08:21:08;;;;;;;11.30;6.20;;;;;;;19.40;100.00;102164.94;3577610;40;20033;-64
2021/07/20 08:23:36;;;;;;;10.02;6.25;;;;;;;19.75;100.00;102163.88;3575556;40;20388;-63
2021/07/20 08:26:06;;;;;;;10.25;6.85;;;;;;;19.78;100.00;102162.75;3574655;40;20045;-63
2021/07/20 08:28:37;;;;;;;10.00;6.05;;;;;;;19.84;100.00;102173.00;3575354;40;20268;-63
2021/07/20 08:31:07;;;;;;;10.25;7.00;;;;;;;19.99;100.00;102167.75;3575479;40;20053;-62
2021/07/20 08:33:37;;;;;;;9.43;7.10;;;;;;;19.98;100.00;102173.38;3577888;40;20033;-64
2021/07/20 08:36:08;;;;;;;11.70;6.97;;;;;;;19.99;100.00;102164.16;3574231;40;20056;-63
2021/07/20 08:38:35;;;;;;;10.20;6.60;;;;;;;20.00;100.00;102168.63;3569707;40;20117;-62
2021/07/20 08:41:14;;;;;;;9.60;6.10;;;;;;;20.18;100.00;102180.28;3575169;40;20292;-62
2021/07/20 08:44:00;;;;;;;10.35;6.20;;;;;;;20.38;100.00;102175.34;3577318;40;20059;-63
2021/07/20 08:46:48;;;;;;;11.45;6.72;;;;;;;20.52;100.00;102173.81;3575268;40;20074;-63
2021/07/20 08:49:28;;;;;;;8.90;6.15;;;;;;;20.44;100.00;102171.09;3576429;40;20070;-63
2021/07/20 08:52:00;;;;;;;7.55;5.93;;;;;;;20.61;100.00;102181.03;3576388;40;20049;-63
2021/07/20 08:54:29;;;;;;;9.23;6.28;;;;;;;20.65;100.00;102168.69;3573266;40;20294;-63
2021/07/20 08:57:01;;;;;;;9.30;6.30;;;;;;;20.30;100.00;102173.47;3572491;40;20130;-65
2021/07/20 08:59:34;;;;;;;9.40;5.80;;;;;;;20.39;100.00;102170.72;3576104;40;20056;-64
2021/07/20 09:02:18;;;;;;;10.60;6.25;;;;;;;20.44;100.00;102180.16;3572642;40;20067;-63
2021/07/20 09:04:53;;;;;;;10.10;6.20;;;;;;;20.34;100.00;102178.59;3566254;40;20303;-63
2021/07/20 09:07:23;;;;;;;11.18;6.68;;;;;;;20.30;100.00;102181.69;3574444;40;20043;-64
2021/07/20 09:09:50;;;;;;;8.85;5.65;;;;;;;20.42;100.00;102181.31;3567790;40;20057;-64
2021/07/20 09:12:20;;;;;;;10.15;6.57;;;;;;;20.42;100.00;102189.53;3574521;40;20118;-63
2021/07/20 09:14:51;;;;;;;9.60;6.20;;;;;;;20.70;100.00;102181.03;3573235;40;20384;-63
2021/07/20 09:17:29;;;;;;;8.63;5.88;;;;;;;20.70;100.00;102184.66;3574829;40;20051;-63
2021/07/20 09:19:59;;;;;;;10.85;5.80;;;;;;;20.54;100.00;102182.72;3575046;40;20399;-65
2021/07/20 09:25:45;;;;;;;10.73;6.05;;;;;;;20.84;100.00;102185.84;3634865;22;20043;-64
2021/07/20 09:28:17;;;;;;;9.32;5.47;;;;;;;21.20;100.00;102190.06;3599407;39;20048;-64
2021/07/20 09:30:47;;;;;;;7.78;5.63;;;;;;;21.35;100.00;102189.19;3594706;39;20039;-64
2021/07/20 09:33:25;;;;;;;9.05;6.07;;;;;;;21.30;100.00;102180.66;3592604;39;20039;-63
2021/07/20 09:36:01;;;;;;;9.20;6.13;;;;;;;21.81;100.00;102183.03;3595037;39;20040;-63
2021/07/20 09:38:52;;;;;;;9.18;5.82;;;;;;;21.79;100.00;102184.25;3597971;39;20250;-62
2021/07/20 09:41:28;;;;;;;8.45;5.93;;;;;;;22.13;100.00;102185.78;3598202;39;20035;-64
2021/07/20 09:44:01;;;;;;;8.88;5.90;;;;;;;22.42;95.29;102181.53;3599841;39;20056;-64
2021/07/20 09:46:38;;;;;;;9.88;5.85;;;;;;;22.00;100.00;102175.44;3597810;39;20029;-62
2021/07/20 09:49:15;;;;;;;12.38;6.32;;;;;;;21.86;100.00;102175.16;3591409;39;20368;-65
2021/07/20 09:51:54;;;;;;;8.32;5.85;;;;;;;21.79;100.00;102178.75;3598949;39;20125;-63
2021/07/20 09:54:33;;;;;;;7.93;6.03;;;;;;;22.03;100.00;102186.03;3595431;39;20039;-63
2021/07/20 09:57:16;;;;;;;8.95;5.88;;;;;;;22.39;100.00;102183.59;3596730;39;20028;-63
2021/07/20 09:59:51;;;;;;;9.63;6.32;;;;;;;22.99;96.59;102180.19;3601323;39;20040;-63
2021/07/20 10:02:25;;;;;;;9.38;5.93;;;;;;;22.56;96.51;102175.25;3597471;39;20047;-63
2021/07/20 10:04:59;;;;;;;14.25;6.82;;;;;;;22.51;84.14;102184.03;3599056;39;20050;-64
2021/07/20 10:07:34;;;;;;;9.75;6.18;;;;;;;22.32;100.00;102179.88;3601780;39;20077;-65
2021/07/20 10:10:07;;;;;;;9.85;6.50;;;;;;;22.51;98.69;102178.53;3599603;39;20046;-64
2021/07/20 10:12:45;;;;;;;8.02;6.18;;;;;;;22.94;99.55;102183.50;3599729;39;20502;-62
2021/07/20 10:15:20;;;;;;;8.67;5.90;;;;;;;22.86;98.63;102183.56;3600243;39;20039;-65
2021/07/20 10:17:51;;;;;;;10.38;5.90;;;;;;;22.77;100.00;102179.19;3605572;39;20273;-63
2021/07/20 10:20:22;;;;;;;10.05;5.82;;;;;;;23.04;100.00;102178.59;3604082;39;20040;-63
2021/07/20 10:22:55;;;;;;;10.02;6.78;;;;;;;22.87;97.31;102177.03;3605773;39;20036;-63
2021/07/20 10:25:25;;;;;;;11.73;6.90;;;;;;;23.02;98.48;102183.41;3601975;39;20054;-63
2021/07/20 10:27:54;;;;;;;10.15;6.72;;;;;;;22.91;92.99;102175.63;3603750;39;20283;-64
2021/07/20 10:30:23;;;;;;;;;;;;;;;23.21;98.04;102181.19;3599969;39;20035;-62
2021/07/20 10:32:58;;;;;;;8.68;6.35;;;;;;;23.39;91.44;102172.59;3594456;39;19944;-63
2021/07/20 10:35:36;;;;;;;10.32;6.60;;;;;;;23.08;91.65;102179.06;3598659;39;20028;-63
2021/07/20 10:38:06;;;;;;;8.98;6.50;;;;;;;22.68;91.78;102178.41;3599566;39;20042;-65
2021/07/20 10:40:34;;;;;;;8.93;6.43;;;;;;;21.86;94.09;102160.56;3602988;39;20035;-64
2021/07/20 10:43:07;;;;;;;9.05;6.30;;;;;;;22.17;100.00;102174.28;3603481;39;20039;-63
2021/07/20 10:45:35;;;;;;;10.25;6.65;;;;;;;22.66;94.66;102184.09;3604280;39;20032;-64
2021/07/20 10:48:07;;;;;;;10.70;6.82;;;;;;;23.07;96.83;102177.34;3605316;39;20043;-64
2021/07/20 10:50:43;;;;;;;10.45;7.03;;;;;;;23.03;85.88;102171.38;3605826;39;20031;-63
2021/07/20 10:53:18;;;;;;;10.05;6.63;;;;;;;22.85;91.04;102173.63;3597698;39;20038;-63
2021/07/20 10:55:54;;;;;;;9.75;6.70;;;;;;;22.85;94.46;102173.63;3603409;39;20047;-64
2021/07/20 10:58:31;;;;;;;10.45;6.72;;;;;;;22.90;96.19;102169.28;3603800;39;20044;-63
2021/07/20 11:01:03;;;;;;;9.93;6.15;;;;;;;23.38;95.82;102165.38;3599879;39;20052;-63
2021/07/20 11:03:38;;;;;;;9.70;6.15;;;;;;;23.38;97.94;102165.38;3604753;39;20031;-63
2021/07/20 11:06:09;;;;;;;10.35;6.85;;;;;;;22.93;92.97;102165.31;3597281;39;20056;-64
2021/07/20 11:08:41;;;;;;;10.18;6.88;;;;;;;22.97;92.20;102165.78;3604984;39;20048;-62
2021/07/20 11:11:09;;;;;;;9.73;6.85;;;;;;;23.49;92.16;102153.06;3605258;39;20071;-64
2021/07/20 11:13:40;;;;;;;11.47;7.47;;;;;;;22.99;84.75;102156.31;3606237;39;20044;-64
2021/07/20 11:16:08;;;;;;;11.13;7.13;;;;;;;23.35;77.44;102150.13;3605913;39;20133;-64
2021/07/20 11:18:37;;;;;;;9.52;6.38;;;;;;;23.57;84.06;102147.44;3598855;39;20035;-63
2021/07/20 11:21:07;;;;;;;8.85;6.88;;;;;;;23.78;82.90;102139.28;3602601;39;20040;-64
2021/07/20 11:23:38;;;;;;;11.93;7.38;;;;;;;23.59;88.02;102154.47;3607414;39;20032;-62
2021/07/20 11:26:06;;;;;;;10.23;7.20;;;;;;;23.13;94.49;102159.31;3604801;39;20359;-66
2021/07/20 11:28:33;;;;;;;10.45;7.65;;;;;;;22.71;93.06;102154.19;3599175;39;20396;-63